Saturday, September 22, 2018, 10:34 PM EDT
Back to Local

KOWD, Norwood Memorial Airport

Location: Norwood, MA, United States Lat: 42.183
Local Time: 10:34 PM EDT ( 2:34 GMT) Lon: -71.167
Time Zone: US/Eastern Elev: 49 ft

Show me the last for .
Show Decoded

2018-09-22 21:53 METAR KOWD 230153Z 30003KT 10SM CLR 13/09 A3022 RMK AO2 SLP231 T01330089 =
2018-09-22 20:53 METAR KOWD 230053Z 00000KT 10SM CLR 17/07 A3021 RMK AO2 SLP228 T01670067 =
2018-09-22 19:53 METAR KOWD 222353Z 33004KT 10SM CLR 16/12 A3018 RMK AO2 SLP219 T01560117 10233
                 20156 51017 =
2018-09-22 18:53 METAR KOWD 222253Z 30003KT 10SM CLR 18/10 A3017 RMK AO2 SLP217 T01780100 =
2018-09-22 17:53 METAR KOWD 222153Z 36004KT 10SM CLR 19/09 A3014 RMK AO2 SLP206 T01890094 =
2018-09-22 16:53 METAR KOWD 222053Z VRB06KT 10SM CLR 21/09 A3013 RMK AO2 SLP202 T02060089 53012 =
2018-09-22 15:53 METAR KOWD 221953Z 33006KT 10SM CLR 22/09 A3012 RMK AO2 SLP198 T02170094 =
2018-09-22 14:53 METAR KOWD 221853Z 32006KT 10SM CLR 22/10 A3010 RMK AO2 SLP192 T02220100 =
2018-09-22 13:53 METAR KOWD 221753Z 32011G15KT 10SM CLR 22/10 A3009 RMK AO2 SLP190 T02220100
                 10233 20206 53012 =
2018-09-22 12:53 METAR KOWD 221653Z VRB06KT 10SM CLR 22/11 A3009 RMK AO2 SLP187 T02170111 =
2018-09-22 11:53 METAR KOWD 221553Z 34010KT 10SM CLR 23/13 A3007 RMK AO2 SLP180 T02330128 =
2018-09-22 10:53 METAR KOWD 221453Z 32010KT 10SM CLR 21/12 A3006 RMK AO2 SLP178 T02110117 51033 =
2018-09-22 09:53 METAR KOWD 221353Z 28009KT 10SM BKN100 21/12 A3003 RMK AO2 SLP169 T02110122 =
2018-09-22 08:53 METAR KOWD 221253Z 28012KT 10SM BKN100 21/12 A3000 RMK AO2 SLP157 T02110122 =
2018-09-22 07:53 METAR KOWD 221153Z 27011KT 10SM SCT030 21/12 A2996 RMK AO2 SLP145 60004 70004
                 T02110122 10228 20206 53037 =
2018-09-22 06:53 METAR KOWD 221053Z 28013G23KT 10SM SCT030 22/18 A2992 RMK AO2 SLP130 T02220183 =
2018-09-22 06:19 METAR KOWD 221019Z AUTO 23006KT 10SM FEW018 SCT024 22/21 A2989 RMK AO2 T02170206
                 =
2018-09-22 06:10 METAR KOWD 221010Z AUTO 24005KT 10SM SCT013 BKN020 22/21 A2988 RMK AO2 T02170206
                 =
2018-09-22 05:53 METAR KOWD 220953Z AUTO 21005KT 10SM BKN013 OVC025 22/21 A2988 RMK AO2 SLP116
                 T02220206 =
2018-09-22 04:53 METAR KOWD 220853Z AUTO 21007KT 10SM BKN013 OVC022 22/20 A2985 RMK AO2 RAE0755
                 SLP108 P0000 60004 T02170200 58009 =
2018-09-22 04:46 METAR KOWD 220846Z AUTO 21005KT 10SM BKN013 BKN019 OVC024 22/20 A2985 RMK AO2
                 RAE0755 P0000 T02170200 =
2018-09-22 04:23 METAR KOWD 220823Z AUTO 20005KT 10SM SCT018 BKN027 OVC039 22/20 A2985 RMK AO2
                 RAE0755 P0000 T02170200 =
2018-09-22 03:53 METAR KOWD 220753Z AUTO 20007KT 10SM -RA FEW021 BKN060 OVC090 22/19 A2985 RMK
                 AO2 SLP108 P0004 T02170194 =
2018-09-22 03:33 METAR KOWD 220733Z AUTO 19009KT 5SM RA BR SCT023 BKN050 OVC070 22/19 A2985 RMK
                 AO2 P0004 T02170194 =
2018-09-22 02:53 METAR KOWD 220653Z AUTO 22010G18KT 10SM -RA OVC022 23/18 A2988 RMK AO2 RAB53
                 SLP117 P0000 T02280183 =
2018-09-22 01:53 METAR KOWD 220553Z AUTO 21014G22KT 10SM OVC029 23/18 A2988 RMK AO2 SLP117
                 T02280178 10228 20200 58026 =
2018-09-22 00:53 METAR KOWD 220453Z AUTO 20007G15KT 10SM BKN036 22/17 A2990 RMK AO2 SLP124
                 T02170172 402280150 =
2018-09-21 23:53 METAR KOWD 220353Z AUTO 20010KT 10SM OVC039 21/18 A2994 RMK AO2 SLP138 T02110178
                 =
2018-09-21 22:53 METAR KOWD 220253Z AUTO 20012G20KT 10SM SCT039 21/17 A2995 RMK AO2 SLP143
                 T02060172 56017 =

Support USWX by starting your Amazon purchase here.